createdAt,value
2022-10-11T00:01:54.464Z,100311.03
2022-10-11T00:04:21.494Z,100315.16
2022-10-11T00:06:48.595Z,100312.56
2022-10-11T00:09:15.899Z,100319.56
2022-10-11T00:11:42.989Z,100320.28
2022-10-11T00:14:09.992Z,100334.94
2022-10-11T00:16:37.322Z,100332.03
2022-10-11T00:19:04.287Z,100333.38
2022-10-11T00:21:31.348Z,100339.69
2022-10-11T00:23:58.367Z,100334.94
2022-10-11T00:26:25.307Z,100335.41
2022-10-11T00:28:52.540Z,100333.00
2022-10-11T00:31:19.878Z,100342.34
2022-10-11T00:33:47.354Z,100349.66
2022-10-11T00:36:14.377Z,100356.31
2022-10-11T00:38:41.604Z,100353.56
2022-10-11T00:41:08.684Z,100351.47
2022-10-11T00:43:36.593Z,100360.53
2022-10-11T00:46:18.786Z,100368.81
2022-10-11T00:49:00.607Z,100380.16
2022-10-11T00:51:43.048Z,100393.22
2022-10-11T00:54:14.802Z,100388.34
2022-10-11T00:56:43.636Z,100374.31
2022-10-11T00:59:18.022Z,100369.03
2022-10-11T01:01:45.103Z,100363.97
2022-10-11T01:04:12.329Z,100360.69
2022-10-11T01:06:40.309Z,100354.75
2022-10-11T01:09:08.250Z,100359.00
2022-10-11T01:11:37.598Z,100354.06
2022-10-11T01:14:37.636Z,100353.72
2022-10-11T01:17:35.818Z,100355.56
2022-10-11T01:20:21.169Z,100358.81
2022-10-11T01:23:16.212Z,100363.78
2022-10-11T01:25:43.136Z,100370.41
2022-10-11T01:28:42.052Z,100372.81
2022-10-11T01:31:40.041Z,100369.56
2022-10-11T01:34:39.019Z,100374.19
2022-10-11T01:37:24.158Z,100384.22
2022-10-11T01:40:08.588Z,100383.38
2022-10-11T01:42:38.896Z,100377.25
2022-10-11T01:45:09.665Z,100380.66
2022-10-11T01:47:36.705Z,100386.59
2022-10-11T01:50:04.048Z,100389.69
2022-10-11T01:52:35.963Z,100393.63
2022-10-11T01:55:27.998Z,100388.50
2022-10-11T01:58:01.154Z,100384.53
2022-10-11T02:00:38.037Z,100384.03
2022-10-11T02:03:39.148Z,100397.13
2022-10-11T02:06:34.930Z,100390.78
2022-10-11T02:09:13.577Z,100390.25
2022-10-11T02:11:41.478Z,100394.66
2022-10-11T02:14:20.524Z,100394.66
2022-10-11T02:16:58.779Z,100391.75
2022-10-11T02:19:30.180Z,100393.56
2022-10-11T02:22:03.516Z,100402.44
2022-10-11T02:24:34.482Z,100409.22
2022-10-11T02:27:05.092Z,100405.63
2022-10-11T02:29:36.269Z,100398.63
2022-10-11T02:32:04.038Z,100398.44
2022-10-11T02:34:35.843Z,100404.03
2022-10-11T02:37:12.011Z,100403.16
2022-10-11T02:39:47.265Z,100398.75
2022-10-11T02:42:23.720Z,100399.22
2022-10-11T02:44:56.889Z,100403.84
2022-10-11T02:47:23.925Z,100409.75
2022-10-11T02:49:51.187Z,100415.72
2022-10-11T02:52:18.173Z,100410.50
2022-10-11T02:54:45.165Z,100415.38
2022-10-11T02:57:12.290Z,100418.66
2022-10-11T02:59:39.349Z,100419.75
2022-10-11T03:02:06.394Z,100426.31
2022-10-11T03:04:33.457Z,100432.00
2022-10-11T03:07:00.552Z,100428.19
2022-10-11T03:09:27.551Z,100437.97
2022-10-11T03:11:54.525Z,100440.47
2022-10-11T03:14:21.559Z,100436.47
2022-10-11T03:16:48.756Z,100446.59
2022-10-11T03:19:19.356Z,100441.72
2022-10-11T03:21:46.803Z,100447.34
2022-10-11T03:24:13.930Z,100443.03
2022-10-11T03:26:41.059Z,100446.34
2022-10-11T03:29:08.046Z,100450.00
2022-10-11T03:31:35.359Z,100450.91
2022-10-11T03:34:02.328Z,100464.94
2022-10-11T03:36:29.296Z,100455.50
2022-10-11T03:38:56.319Z,100462.09
2022-10-11T03:41:23.267Z,100457.41
2022-10-11T03:43:50.291Z,100468.84
2022-10-11T03:46:17.353Z,100465.72
2022-10-11T03:48:44.320Z,100467.72
2022-10-11T03:51:11.338Z,100471.72
2022-10-11T03:53:39.103Z,100466.75
2022-10-11T03:56:08.568Z,100469.91
2022-10-11T03:58:35.719Z,100469.78
2022-10-11T04:01:02.704Z,100476.56
2022-10-11T04:03:29.692Z,100491.72
2022-10-11T04:05:56.655Z,100495.88
2022-10-11T04:08:23.661Z,100497.88
2022-10-11T04:10:50.651Z,100495.59
2022-10-11T04:13:18.100Z,100502.16
2022-10-11T04:15:45.465Z,100505.16
2022-10-11T04:18:12.566Z,100509.00
2022-10-11T04:20:39.530Z,100503.88
2022-10-11T04:23:06.535Z,100498.44
2022-10-11T04:25:33.531Z,100501.16
2022-10-11T04:28:00.563Z,100504.88
2022-10-11T04:30:27.642Z,100506.84
2022-10-11T04:32:54.652Z,100508.25
2022-10-11T04:35:21.664Z,100507.69
2022-10-11T04:37:48.633Z,100510.41
2022-10-11T04:40:15.730Z,100513.25
2022-10-11T04:42:42.714Z,100528.72
2022-10-11T04:45:09.943Z,100522.41
2022-10-11T04:47:38.979Z,100523.53
2022-10-11T04:50:06.272Z,100529.13
2022-10-11T04:52:33.246Z,100538.25
2022-10-11T04:55:00.207Z,100540.22
2022-10-11T04:57:27.227Z,100536.91
2022-10-11T04:59:54.219Z,100552.63
2022-10-11T05:02:21.259Z,100565.44
2022-10-11T05:04:48.302Z,100566.13
2022-10-11T05:07:15.267Z,100565.38
2022-10-11T05:09:42.523Z,100569.81
2022-10-11T05:12:09.932Z,100566.66
2022-10-11T05:14:37.019Z,100566.47
2022-10-11T05:17:04.042Z,100575.56
2022-10-11T05:19:31.068Z,100574.41
2022-10-11T05:21:58.029Z,100571.69
2022-10-11T05:24:25.053Z,100587.50
2022-10-11T05:26:52.306Z,100597.88
2022-10-11T05:29:19.332Z,100585.84
2022-10-11T05:31:46.279Z,100593.84
2022-10-11T05:34:13.253Z,100592.25
2022-10-11T05:36:40.225Z,100593.38
2022-10-11T05:39:07.167Z,100604.72
2022-10-11T05:41:34.144Z,100605.44
2022-10-11T05:44:01.138Z,100604.97
2022-10-11T05:46:28.076Z,100617.69
2022-10-11T05:48:55.048Z,100619.91
2022-10-11T05:51:22.126Z,100617.59
2022-10-11T05:53:49.105Z,100618.84
2022-10-11T05:56:24.639Z,100618.09
2022-10-11T05:58:52.419Z,100617.38
2022-10-11T06:01:25.352Z,100629.34
2022-10-11T06:03:53.071Z,100623.94
2022-10-11T06:06:20.731Z,100630.06
2022-10-11T06:08:48.341Z,100644.22
2022-10-11T06:11:24.432Z,100651.69
2022-10-11T06:13:53.847Z,100654.75
2022-10-11T06:16:20.881Z,100664.47
2022-10-11T06:18:47.839Z,100669.13
2022-10-11T06:21:14.820Z,100665.91
2022-10-11T06:23:41.801Z,100670.09
2022-10-11T06:26:10.312Z,100672.84
2022-10-11T06:28:37.594Z,100674.19
2022-10-11T06:31:05.890Z,100684.50
2022-10-11T06:33:33.642Z,100677.53
2022-10-11T06:36:04.019Z,100686.16
2022-10-11T06:38:31.304Z,100679.13
2022-10-11T06:41:08.030Z,100685.63
2022-10-11T06:43:35.002Z,100691.13
2022-10-11T06:46:02.114Z,100694.34
2022-10-11T06:48:29.343Z,100698.00
2022-10-11T06:51:00.483Z,100691.25
2022-10-11T06:53:28.124Z,100694.66
2022-10-11T06:56:02.653Z,100694.03
2022-10-11T06:58:29.960Z,100706.19
2022-10-11T07:01:12.670Z,100695.69
2022-10-11T07:03:39.988Z,100702.31
2022-10-11T07:06:12.172Z,100697.94
2022-10-11T07:08:39.400Z,100699.94
2022-10-11T07:11:12.598Z,100706.09
2022-10-11T07:13:40.378Z,100706.38
2022-10-11T07:16:10.494Z,100695.53
2022-10-11T07:18:38.653Z,100708.88
2022-10-11T07:21:07.805Z,100714.88
2022-10-11T07:23:35.016Z,100724.28
2022-10-11T07:26:02.327Z,100729.91
2022-10-11T07:28:30.091Z,100716.59
2022-10-11T07:30:57.733Z,100718.88
2022-10-11T07:33:24.917Z,100712.53
2022-10-11T07:35:56.294Z,100708.53
2022-10-11T07:38:23.320Z,100706.50
2022-10-11T07:40:50.392Z,100715.31
2022-10-11T07:43:17.398Z,100711.75
2022-10-11T07:45:44.610Z,100716.75
2022-10-11T07:48:11.729Z,100717.75
2022-10-11T07:50:38.935Z,100720.66
2022-10-11T07:53:05.999Z,100709.00
2022-10-11T07:55:38.019Z,100712.19
2022-10-11T07:58:05.044Z,100712.09
2022-10-11T08:00:32.025Z,100716.78
2022-10-11T08:03:02.176Z,100711.97
2022-10-11T08:05:30.280Z,100712.59
2022-10-11T08:07:58.013Z,100714.06
2022-10-11T08:10:26.361Z,100715.47
2022-10-11T08:12:53.351Z,100719.03
2022-10-11T08:15:20.692Z,100726.72
2022-10-11T08:17:50.599Z,100712.28
2022-10-11T08:20:17.612Z,100721.25
2022-10-11T08:22:44.566Z,100721.34
2022-10-11T08:25:11.602Z,100724.94
2022-10-11T08:27:38.643Z,100725.47
2022-10-11T08:30:06.190Z,100727.50
2022-10-11T08:32:33.260Z,100718.28
2022-10-11T08:35:00.271Z,100721.03
2022-10-11T08:37:27.260Z,100719.59
2022-10-11T08:39:54.266Z,100722.56
2022-10-11T08:42:46.420Z,100724.94
2022-10-11T08:45:36.621Z,100722.84
2022-10-11T08:48:13.270Z,100729.44
2022-10-11T08:50:42.619Z,100727.47
2022-10-11T08:53:36.226Z,100728.34
2022-10-11T08:56:04.341Z,100727.94
2022-10-11T08:58:43.120Z,100725.53
2022-10-11T09:01:17.080Z,100729.63
2022-10-11T09:03:46.833Z,100722.81
2022-10-11T09:06:21.129Z,100720.44
2022-10-11T09:08:48.046Z,100721.84
2022-10-11T09:11:36.804Z,100718.63
2022-10-11T09:14:14.006Z,100708.25
2022-10-11T09:17:18.730Z,100713.41
2022-10-11T09:20:19.711Z,100710.84
2022-10-11T09:22:59.933Z,100721.13
2022-10-11T09:25:37.993Z,100709.31
2022-10-11T09:28:20.245Z,100709.63
2022-10-11T09:30:52.198Z,100722.66
2022-10-11T09:33:24.255Z,100706.56
2022-10-11T09:35:52.582Z,100709.97
2022-10-11T09:38:45.788Z,100709.97
2022-10-11T09:41:12.793Z,100712.22
2022-10-11T09:43:40.063Z,100713.91
2022-10-11T09:46:20.761Z,100713.59
2022-10-11T09:48:48.721Z,100709.63
2022-10-11T09:51:20.391Z,100706.88
2022-10-11T09:54:01.212Z,100707.03
2022-10-11T09:56:31.189Z,100711.50
2022-10-11T09:59:10.416Z,100711.81
2022-10-11T10:01:37.559Z,100712.28
2022-10-11T10:04:11.442Z,100709.88
2022-10-11T10:06:39.717Z,100711.38
2022-10-11T10:09:20.250Z,100708.34
2022-10-11T10:11:48.021Z,100711.53
2022-10-11T10:14:27.708Z,100711.72
2022-10-11T10:17:06.822Z,100706.25
2022-10-11T10:20:01.506Z,100703.84
2022-10-11T10:22:32.224Z,100703.63
2022-10-11T10:25:03.301Z,100706.53
2022-10-11T10:27:31.680Z,100699.84
2022-10-11T10:30:07.180Z,100701.59
2022-10-11T10:32:48.455Z,100703.28
2022-10-11T10:35:25.098Z,100698.84
2022-10-11T10:38:06.547Z,100696.59
2022-10-11T10:40:41.486Z,100701.31
2022-10-11T10:43:14.173Z,100696.16
2022-10-11T10:46:09.135Z,100690.44
2022-10-11T10:52:03.295Z,100694.56
2022-10-11T10:54:58.184Z,100695.25
2022-10-11T10:57:40.892Z,100700.19
2022-10-11T11:00:15.689Z,100695.09
2022-10-11T11:03:03.721Z,100690.25
2022-10-11T11:05:33.417Z,100688.38
2022-10-11T11:08:09.451Z,100685.81
2022-10-11T11:10:42.348Z,100695.69
2022-10-11T11:13:19.572Z,100685.53
2022-10-11T11:15:51.889Z,100684.91
2022-10-11T11:18:38.432Z,100677.88
2022-10-11T11:21:05.517Z,100687.28
2022-10-11T11:23:35.532Z,100676.91
2022-10-11T11:26:05.680Z,100687.63
2022-10-11T11:28:45.033Z,100688.75
2022-10-11T11:31:24.987Z,100678.94
2022-10-11T11:34:10.785Z,100673.13
2022-10-11T11:37:22.951Z,100673.81
2022-10-11T11:39:54.014Z,100671.34
2022-10-11T11:42:26.706Z,100680.91
2022-10-11T11:44:53.783Z,100677.47
2022-10-11T11:47:43.930Z,100661.56
2022-10-11T11:50:20.481Z,100661.84
2022-10-11T11:52:55.928Z,100654.19
2022-10-11T11:55:37.602Z,100662.91
2022-10-11T11:58:41.408Z,100660.53
2022-10-11T12:01:27.594Z,100653.38
2022-10-11T12:04:03.103Z,100655.50
2022-10-11T12:06:32.977Z,100658.22
2022-10-11T12:09:18.179Z,100654.94
2022-10-11T12:11:55.781Z,100656.25
2022-10-11T12:14:49.139Z,100655.25
2022-10-11T12:17:18.216Z,100654.38
2022-10-11T12:20:08.324Z,100647.00
2022-10-11T12:22:39.224Z,100649.94
2022-10-11T12:25:09.247Z,100642.50
2022-10-11T12:27:39.317Z,100643.53
2022-10-11T12:30:43.813Z,100645.00
2022-10-11T12:33:21.465Z,100637.44
2022-10-11T12:35:51.252Z,100633.72
2022-10-11T12:38:35.891Z,100635.56
2022-10-11T12:41:08.794Z,100639.38
2022-10-11T12:44:14.394Z,100623.72
2022-10-11T12:47:00.265Z,100613.09
2022-10-11T12:49:37.817Z,100615.84
2022-10-11T12:52:17.016Z,100614.25
2022-10-11T12:54:52.993Z,100611.88
2022-10-11T12:57:40.504Z,100605.59
2022-10-11T13:00:22.844Z,100611.22
2022-10-11T13:02:50.085Z,100602.28
2022-10-11T13:05:22.935Z,100604.56
2022-10-11T13:07:51.757Z,100610.03
2022-10-11T13:10:30.420Z,100608.72
2022-10-11T13:12:59.726Z,100607.13
2022-10-11T13:15:28.604Z,100609.34
2022-10-11T13:18:00.926Z,100604.25
2022-10-11T13:20:30.864Z,100601.13
2022-10-11T13:22:58.302Z,100606.00
2022-10-11T13:25:36.303Z,100596.69
2022-10-11T13:28:08.331Z,100609.75
2022-10-11T13:30:37.161Z,100601.31
2022-10-11T13:33:07.717Z,100604.28
2022-10-11T13:35:37.293Z,100603.72
2022-10-11T13:38:08.749Z,100594.91
2022-10-11T13:40:37.799Z,100598.41
2022-10-11T13:43:05.737Z,100597.34
2022-10-11T13:45:33.242Z,100589.59
2022-10-11T13:48:00.260Z,100586.75
2022-10-11T13:50:30.852Z,100597.06
2022-10-11T13:53:08.952Z,100600.41
2022-10-11T13:55:46.699Z,100591.66
2022-10-11T13:58:36.437Z,100584.19
2022-10-11T14:01:07.204Z,100590.25
2022-10-11T14:03:46.781Z,100578.63
2022-10-11T14:06:13.978Z,100579.06
2022-10-11T14:08:45.233Z,100579.63
2022-10-11T14:11:13.682Z,100581.81
2022-10-11T14:13:51.208Z,100586.91
2022-10-11T14:16:18.146Z,100582.06
2022-10-11T14:18:49.156Z,100578.38
2022-10-11T14:21:19.209Z,100579.19
2022-10-11T14:23:47.446Z,100581.94
2022-10-11T14:26:18.718Z,100574.84
2022-10-11T14:28:56.301Z,100578.53
2022-10-11T14:31:26.800Z,100573.13
2022-10-11T14:33:55.436Z,100583.09
2022-10-11T14:36:23.564Z,100584.72
2022-10-11T14:38:51.681Z,100571.75
2022-10-11T14:41:18.843Z,100575.63
2022-10-11T14:43:45.868Z,100570.06
2022-10-11T14:46:23.030Z,100571.47
2022-10-11T14:48:55.369Z,100569.56
2022-10-11T14:51:28.168Z,100566.16
2022-10-11T14:53:55.234Z,100563.50
2022-10-11T14:56:22.196Z,100568.00
2022-10-11T14:58:49.681Z,100563.13
2022-10-11T15:01:17.585Z,100565.75
2022-10-11T15:03:44.670Z,100562.00
2022-10-11T15:06:24.061Z,100558.09
2022-10-11T15:08:51.515Z,100567.09
2022-10-11T15:11:20.139Z,100562.31
2022-10-11T15:13:47.880Z,100562.72
2022-10-11T15:16:17.974Z,100555.66
2022-10-11T15:18:45.566Z,100553.16
2022-10-11T15:21:15.806Z,100548.91
2022-10-11T15:23:42.785Z,100555.75
2022-10-11T15:26:13.900Z,100553.22
2022-10-11T15:28:41.124Z,100553.41
2022-10-11T15:31:09.538Z,100558.88
2022-10-11T15:33:37.173Z,100559.91
2022-10-11T15:36:06.523Z,100558.56
2022-10-11T15:38:34.245Z,100564.88
2022-10-11T15:41:01.295Z,100559.94
2022-10-11T15:43:28.355Z,100558.91
2022-10-11T15:45:56.566Z,100560.97
2022-10-11T15:48:25.776Z,100560.97
2022-10-11T15:50:54.137Z,100561.47
2022-10-11T15:53:24.147Z,100566.47
2022-10-11T15:55:53.883Z,100559.47
2022-10-11T15:58:32.782Z,100553.44
2022-10-11T16:01:04.658Z,100557.91
2022-10-11T16:03:33.677Z,100557.53
2022-10-11T16:06:05.176Z,100557.56
2022-10-11T16:08:33.787Z,100549.00
2022-10-11T16:11:01.712Z,100560.78
2022-10-11T16:13:28.836Z,100560.78
2022-10-11T16:15:55.837Z,100560.09
2022-10-11T16:18:23.524Z,100565.19
2022-10-11T16:20:51.148Z,100560.06
2022-10-11T16:23:19.690Z,100565.16
2022-10-11T16:25:56.156Z,100557.81
2022-10-11T16:28:23.197Z,100559.50
2022-10-11T16:30:50.299Z,100566.50
2022-10-11T16:33:17.302Z,100572.94
2022-10-11T16:35:44.357Z,100566.41
2022-10-11T16:38:11.321Z,100566.66
2022-10-11T16:40:40.265Z,100572.22
2022-10-11T16:43:08.464Z,100570.28
2022-10-11T16:45:36.164Z,100568.16
2022-10-11T16:48:03.535Z,100572.19
2022-10-11T16:50:33.321Z,100563.06
2022-10-11T16:53:02.609Z,100571.34
2022-10-11T16:55:29.570Z,100564.84
2022-10-11T16:57:56.599Z,100571.56
2022-10-11T17:00:23.642Z,100571.94
2022-10-11T17:02:50.688Z,100563.69
2022-10-11T17:05:17.805Z,100569.25
2022-10-11T17:07:44.742Z,100567.28
2022-10-11T17:10:11.717Z,100577.78
2022-10-11T17:12:38.705Z,100574.09
2022-10-11T17:15:06.495Z,100579.66
2022-10-11T17:17:33.559Z,100579.84
2022-10-11T17:20:00.997Z,100576.63
2022-10-11T17:22:28.090Z,100582.56
2022-10-11T17:24:55.151Z,100584.47
2022-10-11T17:27:22.142Z,100577.66
2022-10-11T17:29:49.172Z,100586.28
2022-10-11T17:32:16.153Z,100582.69
2022-10-11T17:34:43.181Z,100574.25
2022-10-11T17:37:10.160Z,100583.72
2022-10-11T17:39:37.171Z,100588.31
2022-10-11T17:42:04.298Z,100588.47
2022-10-11T17:44:32.265Z,100586.63
2022-10-11T17:46:59.247Z,100590.38
2022-10-11T17:49:26.241Z,100583.34
2022-10-11T17:51:53.260Z,100584.47
2022-10-11T17:54:20.228Z,100582.63
2022-10-11T17:56:47.193Z,100581.66
2022-10-11T17:59:20.333Z,100585.50
2022-10-11T18:01:49.005Z,100583.78
2022-10-11T18:04:16.883Z,100575.09
2022-10-11T18:06:45.818Z,100585.66
2022-10-11T18:09:14.464Z,100584.25
2022-10-11T18:11:41.724Z,100577.78
2022-10-11T18:14:10.481Z,100583.94
2022-10-11T18:16:38.924Z,100585.38
2022-10-11T18:19:10.501Z,100580.91
2022-10-11T18:21:37.957Z,100586.47
2022-10-11T18:24:08.772Z,100584.31
2022-10-11T18:26:38.330Z,100577.72
2022-10-11T18:29:05.393Z,100584.72
2022-10-11T18:31:33.492Z,100584.72
2022-10-11T18:34:01.986Z,100578.00
2022-10-11T18:36:30.129Z,100581.84
2022-10-11T18:39:00.438Z,100584.69
2022-10-11T18:41:30.081Z,100585.69
2022-10-11T18:44:00.392Z,100579.81
2022-10-11T18:46:28.228Z,100589.34
2022-10-11T18:48:56.822Z,100594.06
2022-10-11T18:51:29.373Z,100590.16
2022-10-11T18:53:56.685Z,100586.00
2022-10-11T18:56:23.952Z,100590.16
2022-10-11T18:58:52.781Z,100586.56
2022-10-11T19:01:23.696Z,100585.69
2022-10-11T19:03:53.980Z,100591.25
2022-10-11T19:06:27.298Z,100591.56
2022-10-11T19:08:59.049Z,100593.53
2022-10-11T19:11:28.312Z,100584.19
2022-10-11T19:14:03.995Z,100589.91
2022-10-11T19:16:31.036Z,100576.75
2022-10-11T19:18:58.123Z,100582.72
2022-10-11T19:21:25.520Z,100584.13
2022-10-11T19:23:54.393Z,100579.09
2022-10-11T19:26:24.167Z,100581.34
2022-10-11T19:28:57.082Z,100588.44
2022-10-11T19:31:24.613Z,100586.09
2022-10-11T19:33:51.985Z,100584.75
2022-10-11T19:36:19.316Z,100583.84
2022-10-11T19:38:49.007Z,100586.22
2022-10-11T19:41:19.183Z,100581.03
2022-10-11T19:43:46.574Z,100580.47
2022-10-11T19:46:20.196Z,100586.38
2022-10-11T19:48:51.801Z,100582.47
2022-10-11T19:51:21.582Z,100581.28
2022-10-11T19:53:55.251Z,100579.81
2022-10-11T19:56:22.860Z,100589.06
2022-10-11T19:58:49.922Z,100594.31
2022-10-11T20:01:19.370Z,100588.44
2022-10-11T20:03:51.780Z,100587.47
2022-10-11T20:06:20.687Z,100591.28
2022-10-11T20:08:55.933Z,100592.66
2022-10-11T20:11:31.966Z,100588.22
2022-10-11T20:13:58.952Z,100596.47
2022-10-11T20:16:27.643Z,100588.00
2022-10-11T20:18:56.634Z,100588.38
2022-10-11T20:21:25.008Z,100591.72
2022-10-11T20:23:52.888Z,100589.16
2022-10-11T20:26:23.047Z,100583.88
2022-10-11T20:28:55.788Z,100587.81
2022-10-11T20:31:26.280Z,100591.75
2022-10-11T20:33:58.165Z,100594.94
2022-10-11T20:36:25.791Z,100596.06
2022-10-11T20:38:52.786Z,100600.00
2022-10-11T20:41:31.380Z,100599.63
2022-10-11T20:44:00.180Z,100610.44
2022-10-11T20:46:32.581Z,100607.97
2022-10-11T20:49:04.920Z,100611.31
2022-10-11T20:51:34.145Z,100608.84
2022-10-11T20:54:01.888Z,100610.34
2022-10-11T20:56:29.298Z,100601.97
2022-10-11T20:58:57.877Z,100601.34
2022-10-11T21:01:30.523Z,100600.72
2022-10-11T21:03:58.884Z,100599.38
2022-10-11T21:06:26.285Z,100601.69
2022-10-11T21:08:55.280Z,100606.50
2022-10-11T21:11:26.107Z,100609.44
2022-10-11T21:13:57.649Z,100608.81
2022-10-11T21:16:25.507Z,100611.63
2022-10-11T21:18:54.564Z,100607.47
2022-10-11T21:21:22.435Z,100612.84
2022-10-11T21:23:52.873Z,100606.84
2022-10-11T21:26:19.862Z,100612.38
2022-10-11T21:28:46.997Z,100616.28
2022-10-11T21:31:19.205Z,100614.78
2022-10-11T21:33:46.647Z,100608.53
2022-10-11T21:36:16.336Z,100604.34
2022-10-11T21:38:43.414Z,100610.72
2022-10-11T21:41:15.974Z,100613.03
2022-10-11T21:43:43.544Z,100604.31
2022-10-11T21:46:16.047Z,100595.56
2022-10-11T21:48:43.244Z,100611.16
2022-10-11T21:51:24.513Z,100604.78
2022-10-11T21:53:52.108Z,100615.69
2022-10-11T21:56:19.648Z,100610.00
2022-10-11T21:58:47.872Z,100610.78
2022-10-11T22:01:15.537Z,100612.81
2022-10-11T22:03:42.911Z,100616.63
2022-10-11T22:06:10.349Z,100612.41
2022-10-11T22:08:38.769Z,100614.91
2022-10-11T22:11:06.337Z,100615.00
2022-10-11T22:13:33.998Z,100605.31
2022-10-11T22:16:05.838Z,100612.69
2022-10-11T22:18:33.807Z,100612.13
2022-10-11T22:21:12.864Z,100607.94
2022-10-11T22:23:40.815Z,100611.84
2022-10-11T22:26:11.662Z,100609.63
2022-10-11T22:28:38.711Z,100611.59
2022-10-11T22:31:06.950Z,100610.72
2022-10-11T22:33:34.630Z,100606.53
2022-10-11T22:36:04.573Z,100595.22
2022-10-11T22:38:31.721Z,100607.09
2022-10-11T22:40:58.842Z,100601.81
2022-10-11T22:43:25.960Z,100610.03
2022-10-11T22:45:53.040Z,100609.03
2022-10-11T22:48:20.175Z,100604.00
2022-10-11T22:50:47.325Z,100610.13
2022-10-11T22:53:14.913Z,100603.47
2022-10-11T22:55:42.101Z,100591.31
2022-10-11T22:58:09.126Z,100600.34
2022-10-11T23:00:36.243Z,100593.47
2022-10-11T23:03:03.952Z,100591.75
2022-10-11T23:05:30.971Z,100587.53
2022-10-11T23:07:57.985Z,100589.63
2022-10-11T23:10:24.981Z,100583.56
2022-10-11T23:12:52.042Z,100581.75
2022-10-11T23:15:19.106Z,100586.41
2022-10-11T23:17:46.094Z,100591.34
2022-10-11T23:20:13.082Z,100587.19
2022-10-11T23:22:40.100Z,100588.47
2022-10-11T23:25:07.804Z,100591.59
2022-10-11T23:27:35.215Z,100590.41
2022-10-11T23:30:02.537Z,100599.47
2022-10-11T23:32:29.463Z,100604.00
2022-10-11T23:34:56.435Z,100595.81
2022-10-11T23:37:23.489Z,100590.41
2022-10-11T23:39:50.464Z,100596.69
2022-10-11T23:42:17.442Z,100601.31
2022-10-11T23:44:44.408Z,100606.69
2022-10-11T23:47:11.391Z,100604.88
2022-10-11T23:49:38.362Z,100595.06
2022-10-11T23:52:05.413Z,100588.81
2022-10-11T23:54:32.375Z,100596.16
2022-10-11T23:56:59.346Z,100603.47
2022-10-11T23:59:26.335Z,100596.47
